sensor_id;sensor_type;location;lat;lon;timestamp;P1;durP1;ratioP1;P2;durP2;ratioP2
67278;SDS011;54193;53.746;10.058;2022-07-06T00:00:51;5.50;;;1.90;;
67278;SDS011;54193;53.746;10.058;2022-07-06T00:03:37;5.65;;;1.73;;
67278;SDS011;54193;53.746;10.058;2022-07-06T00:06:23;4.47;;;1.98;;
67278;SDS011;54193;53.746;10.058;2022-07-06T00:09:09;5.30;;;1.93;;
67278;SDS011;54193;53.746;10.058;2022-07-06T00:11:54;7.13;;;2.30;;
67278;SDS011;54193;53.746;10.058;2022-07-06T00:14:40;6.25;;;2.10;;
67278;SDS011;54193;53.746;10.058;2022-07-06T00:17:26;5.72;;;1.80;;
67278;SDS011;54193;53.746;10.058;2022-07-06T00:20:11;7.28;;;2.00;;
67278;SDS011;54193;53.746;10.058;2022-07-06T00:22:57;5.37;;;2.00;;
67278;SDS011;54193;53.746;10.058;2022-07-06T00:25:43;5.28;;;2.13;;
67278;SDS011;54193;53.746;10.058;2022-07-06T00:28:30;4.90;;;2.00;;
67278;SDS011;54193;53.746;10.058;2022-07-06T00:31:16;5.55;;;2.00;;
67278;SDS011;54193;53.746;10.058;2022-07-06T00:34:02;5.75;;;2.20;;
67278;SDS011;54193;53.746;10.058;2022-07-06T00:36:48;8.60;;;2.00;;
67278;SDS011;54193;53.746;10.058;2022-07-06T00:39:33;8.05;;;2.20;;
67278;SDS011;54193;53.746;10.058;2022-07-06T00:42:19;5.88;;;2.10;;
67278;SDS011;54193;53.746;10.058;2022-07-06T00:45:05;5.05;;;1.95;;
67278;SDS011;54193;53.746;10.058;2022-07-06T00:47:51;7.40;;;2.10;;
67278;SDS011;54193;53.746;10.058;2022-07-06T00:50:37;5.83;;;1.90;;
67278;SDS011;54193;53.746;10.058;2022-07-06T00:53:23;6.05;;;2.13;;
67278;SDS011;54193;53.746;10.058;2022-07-06T00:56:09;6.38;;;2.13;;
67278;SDS011;54193;53.746;10.058;2022-07-06T00:58:55;5.03;;;1.90;;
67278;SDS011;54193;53.746;10.058;2022-07-06T01:01:40;4.03;;;1.80;;
67278;SDS011;54193;53.746;10.058;2022-07-06T01:04:26;5.50;;;1.87;;
67278;SDS011;54193;53.746;10.058;2022-07-06T01:07:12;5.28;;;2.10;;
67278;SDS011;54193;53.746;10.058;2022-07-06T01:09:58;5.53;;;1.83;;
67278;SDS011;54193;53.746;10.058;2022-07-06T01:12:44;7.65;;;1.85;;
67278;SDS011;54193;53.746;10.058;2022-07-06T01:15:31;6.78;;;1.80;;
67278;SDS011;54193;53.746;10.058;2022-07-06T01:18:16;6.73;;;2.03;;
67278;SDS011;54193;53.746;10.058;2022-07-06T01:21:12;5.45;;;1.88;;
67278;SDS011;54193;53.746;10.058;2022-07-06T01:23:59;6.38;;;1.95;;
67278;SDS011;54193;53.746;10.058;2022-07-06T01:26:45;4.13;;;1.90;;
67278;SDS011;54193;53.746;10.058;2022-07-06T01:29:33;6.13;;;1.90;;
67278;SDS011;54193;53.746;10.058;2022-07-06T01:32:19;5.83;;;1.87;;
67278;SDS011;54193;53.746;10.058;2022-07-06T01:35:05;7.30;;;2.00;;
67278;SDS011;54193;53.746;10.058;2022-07-06T01:37:52;4.95;;;1.80;;
67278;SDS011;54193;53.746;10.058;2022-07-06T01:40:38;5.78;;;1.60;;
67278;SDS011;54193;53.746;10.058;2022-07-06T01:43:24;6.90;;;2.15;;
67278;SDS011;54193;53.746;10.058;2022-07-06T01:46:09;5.57;;;1.70;;
67278;SDS011;54193;53.746;10.058;2022-07-06T01:48:55;4.45;;;1.80;;
67278;SDS011;54193;53.746;10.058;2022-07-06T01:51:42;5.43;;;2.00;;
67278;SDS011;54193;53.746;10.058;2022-07-06T01:54:28;5.38;;;1.70;;
67278;SDS011;54193;53.746;10.058;2022-07-06T01:57:14;6.30;;;2.13;;
67278;SDS011;54193;53.746;10.058;2022-07-06T02:00:00;5.90;;;2.00;;
67278;SDS011;54193;53.746;10.058;2022-07-06T02:02:46;8.40;;;2.08;;
67278;SDS011;54193;53.746;10.058;2022-07-06T02:05:31;5.50;;;1.95;;
67278;SDS011;54193;53.746;10.058;2022-07-06T02:08:17;5.60;;;1.70;;
67278;SDS011;54193;53.746;10.058;2022-07-06T02:11:03;4.32;;;1.50;;
67278;SDS011;54193;53.746;10.058;2022-07-06T02:13:49;6.37;;;1.70;;
67278;SDS011;54193;53.746;10.058;2022-07-06T02:16:36;4.82;;;1.40;;
67278;SDS011;54193;53.746;10.058;2022-07-06T02:19:22;5.85;;;1.30;;
67278;SDS011;54193;53.746;10.058;2022-07-06T02:22:07;3.85;;;1.20;;
67278;SDS011;54193;53.746;10.058;2022-07-06T02:24:53;4.22;;;1.20;;
67278;SDS011;54193;53.746;10.058;2022-07-06T02:27:39;5.33;;;1.30;;
67278;SDS011;54193;53.746;10.058;2022-07-06T02:30:24;3.45;;;1.20;;
67278;SDS011;54193;53.746;10.058;2022-07-06T02:33:10;4.25;;;1.33;;
67278;SDS011;54193;53.746;10.058;2022-07-06T02:35:56;4.65;;;1.20;;
67278;SDS011;54193;53.746;10.058;2022-07-06T02:38:41;6.38;;;1.33;;
67278;SDS011;54193;53.746;10.058;2022-07-06T02:41:27;4.83;;;1.30;;
67278;SDS011;54193;53.746;10.058;2022-07-06T02:44:13;5.47;;;1.20;;
67278;SDS011;54193;53.746;10.058;2022-07-06T02:46:58;4.78;;;1.40;;
67278;SDS011;54193;53.746;10.058;2022-07-06T02:49:44;5.95;;;1.38;;
67278;SDS011;54193;53.746;10.058;2022-07-06T02:52:30;3.75;;;1.25;;
67278;SDS011;54193;53.746;10.058;2022-07-06T02:55:15;3.37;;;1.10;;
67278;SDS011;54193;53.746;10.058;2022-07-06T02:58:01;3.60;;;1.20;;
67278;SDS011;54193;53.746;10.058;2022-07-06T03:00:47;4.22;;;1.30;;
67278;SDS011;54193;53.746;10.058;2022-07-06T03:03:33;3.47;;;1.20;;
67278;SDS011;54193;53.746;10.058;2022-07-06T03:06:18;4.32;;;1.20;;
67278;SDS011;54193;53.746;10.058;2022-07-06T03:09:04;3.63;;;0.90;;
67278;SDS011;54193;53.746;10.058;2022-07-06T03:11:50;2.88;;;1.05;;
67278;SDS011;54193;53.746;10.058;2022-07-06T03:14:35;3.30;;;1.10;;
67278;SDS011;54193;53.746;10.058;2022-07-06T03:17:21;6.15;;;1.73;;
67278;SDS011;54193;53.746;10.058;2022-07-06T03:20:07;6.53;;;1.33;;
67278;SDS011;54193;53.746;10.058;2022-07-06T03:22:52;3.90;;;1.30;;
67278;SDS011;54193;53.746;10.058;2022-07-06T03:25:38;5.85;;;1.30;;
67278;SDS011;54193;53.746;10.058;2022-07-06T03:28:24;5.57;;;1.38;;
67278;SDS011;54193;53.746;10.058;2022-07-06T03:31:09;4.85;;;1.10;;
67278;SDS011;54193;53.746;10.058;2022-07-06T03:33:55;3.45;;;1.25;;
67278;SDS011;54193;53.746;10.058;2022-07-06T03:36:40;5.20;;;1.20;;
67278;SDS011;54193;53.746;10.058;2022-07-06T03:39:26;4.55;;;1.50;;
67278;SDS011;54193;53.746;10.058;2022-07-06T03:42:12;5.25;;;1.23;;
67278;SDS011;54193;53.746;10.058;2022-07-06T03:44:57;5.15;;;1.30;;
67278;SDS011;54193;53.746;10.058;2022-07-06T03:47:43;4.80;;;1.48;;
67278;SDS011;54193;53.746;10.058;2022-07-06T03:50:29;5.03;;;1.47;;
67278;SDS011;54193;53.746;10.058;2022-07-06T03:53:14;4.88;;;1.30;;
67278;SDS011;54193;53.746;10.058;2022-07-06T03:56:00;5.00;;;1.45;;
67278;SDS011;54193;53.746;10.058;2022-07-06T03:59:04;5.47;;;1.35;;
67278;SDS011;54193;53.746;10.058;2022-07-06T04:01:50;3.75;;;1.50;;
67278;SDS011;54193;53.746;10.058;2022-07-06T04:04:36;3.50;;;1.33;;
67278;SDS011;54193;53.746;10.058;2022-07-06T04:07:21;4.72;;;1.20;;
67278;SDS011;54193;53.746;10.058;2022-07-06T04:10:07;6.50;;;1.75;;
67278;SDS011;54193;53.746;10.058;2022-07-06T04:12:53;4.80;;;1.50;;
67278;SDS011;54193;53.746;10.058;2022-07-06T04:15:38;5.90;;;1.50;;
67278;SDS011;54193;53.746;10.058;2022-07-06T04:18:24;3.70;;;1.50;;
67278;SDS011;54193;53.746;10.058;2022-07-06T04:21:10;6.15;;;1.65;;
67278;SDS011;54193;53.746;10.058;2022-07-06T04:23:56;4.88;;;1.60;;
67278;SDS011;54193;53.746;10.058;2022-07-06T04:26:41;6.80;;;1.60;;
67278;SDS011;54193;53.746;10.058;2022-07-06T04:29:27;5.65;;;1.65;;
67278;SDS011;54193;53.746;10.058;2022-07-06T04:32:14;6.67;;;1.73;;
67278;SDS011;54193;53.746;10.058;2022-07-06T04:35:00;6.47;;;1.80;;
67278;SDS011;54193;53.746;10.058;2022-07-06T04:37:46;5.55;;;1.63;;
67278;SDS011;54193;53.746;10.058;2022-07-06T04:40:32;5.72;;;1.60;;
67278;SDS011;54193;53.746;10.058;2022-07-06T04:43:17;4.97;;;1.60;;
67278;SDS011;54193;53.746;10.058;2022-07-06T04:46:03;4.70;;;1.67;;
67278;SDS011;54193;53.746;10.058;2022-07-06T04:48:50;8.77;;;1.70;;
67278;SDS011;54193;53.746;10.058;2022-07-06T04:51:36;9.38;;;1.70;;
67278;SDS011;54193;53.746;10.058;2022-07-06T04:54:22;10.45;;;1.85;;
67278;SDS011;54193;53.746;10.058;2022-07-06T04:57:07;4.68;;;1.33;;
67278;SDS011;54193;53.746;10.058;2022-07-06T04:59:54;4.53;;;1.40;;
67278;SDS011;54193;53.746;10.058;2022-07-06T05:02:40;7.00;;;1.88;;
67278;SDS011;54193;53.746;10.058;2022-07-06T05:05:26;4.18;;;1.50;;
67278;SDS011;54193;53.746;10.058;2022-07-06T05:08:11;5.70;;;1.83;;
67278;SDS011;54193;53.746;10.058;2022-07-06T05:10:57;5.63;;;1.30;;
67278;SDS011;54193;53.746;10.058;2022-07-06T05:13:43;4.93;;;1.40;;
67278;SDS011;54193;53.746;10.058;2022-07-06T05:16:28;5.43;;;1.80;;
67278;SDS011;54193;53.746;10.058;2022-07-06T05:19:18;5.88;;;2.00;;
67278;SDS011;54193;53.746;10.058;2022-07-06T05:22:04;4.03;;;1.80;;
67278;SDS011;54193;53.746;10.058;2022-07-06T05:24:50;7.18;;;1.80;;
67278;SDS011;54193;53.746;10.058;2022-07-06T05:27:36;7.23;;;1.70;;
67278;SDS011;54193;53.746;10.058;2022-07-06T05:30:22;5.20;;;1.70;;
67278;SDS011;54193;53.746;10.058;2022-07-06T05:33:07;6.85;;;2.00;;
67278;SDS011;54193;53.746;10.058;2022-07-06T05:35:53;6.50;;;1.75;;
67278;SDS011;54193;53.746;10.058;2022-07-06T05:38:39;6.80;;;1.80;;
67278;SDS011;54193;53.746;10.058;2022-07-06T05:41:24;4.70;;;1.53;;
67278;SDS011;54193;53.746;10.058;2022-07-06T05:44:11;7.05;;;1.90;;
67278;SDS011;54193;53.746;10.058;2022-07-06T05:46:57;5.63;;;1.90;;
67278;SDS011;54193;53.746;10.058;2022-07-06T05:50:02;6.53;;;1.90;;
67278;SDS011;54193;53.746;10.058;2022-07-06T05:52:59;5.75;;;1.77;;
67278;SDS011;54193;53.746;10.058;2022-07-06T05:55:49;5.10;;;1.70;;
67278;SDS011;54193;53.746;10.058;2022-07-06T05:58:35;5.78;;;1.65;;
67278;SDS011;54193;53.746;10.058;2022-07-06T06:01:20;7.20;;;1.60;;
67278;SDS011;54193;53.746;10.058;2022-07-06T06:04:06;3.78;;;1.42;;
67278;SDS011;54193;53.746;10.058;2022-07-06T06:06:52;5.13;;;1.70;;
67278;SDS011;54193;53.746;10.058;2022-07-06T06:09:38;4.63;;;1.60;;
67278;SDS011;54193;53.746;10.058;2022-07-06T06:12:23;8.85;;;1.80;;
67278;SDS011;54193;53.746;10.058;2022-07-06T06:15:09;6.78;;;1.55;;
67278;SDS011;54193;53.746;10.058;2022-07-06T06:18:05;4.37;;;1.58;;
67278;SDS011;54193;53.746;10.058;2022-07-06T06:20:51;4.63;;;1.70;;
67278;SDS011;54193;53.746;10.058;2022-07-06T06:23:37;5.50;;;1.50;;
67278;SDS011;54193;53.746;10.058;2022-07-06T06:26:23;6.00;;;1.38;;
67278;SDS011;54193;53.746;10.058;2022-07-06T06:29:08;3.38;;;1.40;;
67278;SDS011;54193;53.746;10.058;2022-07-06T06:31:54;5.45;;;1.50;;
67278;SDS011;54193;53.746;10.058;2022-07-06T06:34:40;5.75;;;1.83;;
67278;SDS011;54193;53.746;10.058;2022-07-06T06:37:25;5.57;;;1.50;;
67278;SDS011;54193;53.746;10.058;2022-07-06T06:40:19;7.01;;;1.51;;
67278;SDS011;54193;53.746;10.058;2022-07-06T06:43:05;6.55;;;1.40;;
67278;SDS011;54193;53.746;10.058;2022-07-06T06:45:51;4.03;;;1.40;;
67278;SDS011;54193;53.746;10.058;2022-07-06T06:48:37;5.70;;;1.40;;
67278;SDS011;54193;53.746;10.058;2022-07-06T06:51:22;7.17;;;1.73;;
67278;SDS011;54193;53.746;10.058;2022-07-06T06:54:09;4.95;;;1.40;;
67278;SDS011;54193;53.746;10.058;2022-07-06T06:56:55;5.00;;;1.30;;
67278;SDS011;54193;53.746;10.058;2022-07-06T06:59:40;3.38;;;1.40;;
67278;SDS011;54193;53.746;10.058;2022-07-06T07:02:26;4.93;;;1.48;;
67278;SDS011;54193;53.746;10.058;2022-07-06T07:05:12;7.37;;;1.50;;
67278;SDS011;54193;53.746;10.058;2022-07-06T07:07:59;4.57;;;1.42;;
67278;SDS011;54193;53.746;10.058;2022-07-06T07:10:45;5.75;;;1.48;;
67278;SDS011;54193;53.746;10.058;2022-07-06T07:13:30;4.65;;;1.30;;
67278;SDS011;54193;53.746;10.058;2022-07-06T07:16:16;5.05;;;1.40;;
67278;SDS011;54193;53.746;10.058;2022-07-06T07:19:02;6.70;;;1.80;;
67278;SDS011;54193;53.746;10.058;2022-07-06T07:21:48;3.88;;;1.27;;
67278;SDS011;54193;53.746;10.058;2022-07-06T07:24:33;5.82;;;1.65;;
67278;SDS011;54193;53.746;10.058;2022-07-06T07:27:19;5.65;;;1.52;;
67278;SDS011;54193;53.746;10.058;2022-07-06T07:30:05;5.75;;;1.50;;
67278;SDS011;54193;53.746;10.058;2022-07-06T07:32:51;7.77;;;1.57;;
67278;SDS011;54193;53.746;10.058;2022-07-06T07:35:40;3.40;;;1.20;;
67278;SDS011;54193;53.746;10.058;2022-07-06T07:38:25;5.88;;;1.40;;
67278;SDS011;54193;53.746;10.058;2022-07-06T07:41:11;4.40;;;1.40;;
67278;SDS011;54193;53.746;10.058;2022-07-06T07:43:59;5.05;;;1.35;;
67278;SDS011;54193;53.746;10.058;2022-07-06T07:46:45;4.80;;;1.53;;
67278;SDS011;54193;53.746;10.058;2022-07-06T07:49:32;4.13;;;1.70;;
67278;SDS011;54193;53.746;10.058;2022-07-06T07:52:17;6.25;;;1.40;;
67278;SDS011;54193;53.746;10.058;2022-07-06T07:55:04;4.57;;;1.30;;
67278;SDS011;54193;53.746;10.058;2022-07-06T07:57:50;5.45;;;1.48;;
67278;SDS011;54193;53.746;10.058;2022-07-06T08:00:36;4.37;;;1.60;;
67278;SDS011;54193;53.746;10.058;2022-07-06T08:03:21;5.30;;;1.45;;
67278;SDS011;54193;53.746;10.058;2022-07-06T08:06:07;6.25;;;1.42;;
67278;SDS011;54193;53.746;10.058;2022-07-06T08:08:53;5.57;;;1.60;;
67278;SDS011;54193;53.746;10.058;2022-07-06T08:11:38;8.07;;;1.70;;
67278;SDS011;54193;53.746;10.058;2022-07-06T08:14:25;4.67;;;1.57;;
67278;SDS011;54193;53.746;10.058;2022-07-06T08:17:11;5.10;;;1.35;;
67278;SDS011;54193;53.746;10.058;2022-07-06T08:19:57;5.20;;;1.40;;
67278;SDS011;54193;53.746;10.058;2022-07-06T08:22:43;2.70;;;1.27;;
67278;SDS011;54193;53.746;10.058;2022-07-06T08:25:29;5.85;;;1.80;;
67278;SDS011;54193;53.746;10.058;2022-07-06T08:28:15;4.23;;;1.20;;
67278;SDS011;54193;53.746;10.058;2022-07-06T08:31:00;4.45;;;1.30;;
67278;SDS011;54193;53.746;10.058;2022-07-06T08:33:46;4.28;;;1.40;;
67278;SDS011;54193;53.746;10.058;2022-07-06T08:36:33;4.07;;;1.30;;
67278;SDS011;54193;53.746;10.058;2022-07-06T08:39:19;4.45;;;1.38;;
67278;SDS011;54193;53.746;10.058;2022-07-06T08:42:04;3.23;;;1.20;;
67278;SDS011;54193;53.746;10.058;2022-07-06T08:44:52;4.50;;;1.40;;
67278;SDS011;54193;53.746;10.058;2022-07-06T08:47:38;6.32;;;1.50;;
67278;SDS011;54193;53.746;10.058;2022-07-06T08:50:27;5.15;;;1.48;;
67278;SDS011;54193;53.746;10.058;2022-07-06T08:53:12;3.60;;;1.40;;
67278;SDS011;54193;53.746;10.058;2022-07-06T08:55:58;5.07;;;1.53;;
67278;SDS011;54193;53.746;10.058;2022-07-06T08:58:44;3.83;;;1.30;;
67278;SDS011;54193;53.746;10.058;2022-07-06T09:01:29;3.90;;;1.45;;
67278;SDS011;54193;53.746;10.058;2022-07-06T09:04:16;3.50;;;1.27;;
67278;SDS011;54193;53.746;10.058;2022-07-06T09:07:03;4.30;;;1.20;;
67278;SDS011;54193;53.746;10.058;2022-07-06T09:09:49;2.93;;;1.10;;
67278;SDS011;54193;53.746;10.058;2022-07-06T09:12:37;3.90;;;1.23;;
67278;SDS011;54193;53.746;10.058;2022-07-06T09:15:27;3.75;;;1.60;;
67278;SDS011;54193;53.746;10.058;2022-07-06T09:18:13;3.72;;;1.33;;
67278;SDS011;54193;53.746;10.058;2022-07-06T09:20:59;3.22;;;1.10;;
67278;SDS011;54193;53.746;10.058;2022-07-06T09:23:45;2.80;;;1.07;;
67278;SDS011;54193;53.746;10.058;2022-07-06T09:26:30;2.95;;;1.10;;
67278;SDS011;54193;53.746;10.058;2022-07-06T09:29:17;3.00;;;1.15;;
67278;SDS011;54193;53.746;10.058;2022-07-06T09:32:03;2.33;;;0.90;;
67278;SDS011;54193;53.746;10.058;2022-07-06T09:34:51;2.80;;;0.80;;
67278;SDS011;54193;53.746;10.058;2022-07-06T09:37:36;2.47;;;0.90;;
67278;SDS011;54193;53.746;10.058;2022-07-06T09:40:22;2.83;;;0.85;;
67278;SDS011;54193;53.746;10.058;2022-07-06T09:43:16;2.45;;;0.80;;
67278;SDS011;54193;53.746;10.058;2022-07-06T09:46:04;3.20;;;1.00;;
67278;SDS011;54193;53.746;10.058;2022-07-06T09:48:49;3.60;;;1.02;;
67278;SDS011;54193;53.746;10.058;2022-07-06T09:51:38;2.60;;;0.90;;
67278;SDS011;54193;53.746;10.058;2022-07-06T09:54:24;3.35;;;1.08;;
67278;SDS011;54193;53.746;10.058;2022-07-06T09:57:11;2.50;;;0.80;;
67278;SDS011;54193;53.746;10.058;2022-07-06T09:59:58;2.63;;;0.88;;
67278;SDS011;54193;53.746;10.058;2022-07-06T10:02:43;5.10;;;1.00;;
67278;SDS011;54193;53.746;10.058;2022-07-06T10:05:29;1.80;;;0.80;;
67278;SDS011;54193;53.746;10.058;2022-07-06T10:08:17;3.65;;;1.00;;
67278;SDS011;54193;53.746;10.058;2022-07-06T10:11:03;4.80;;;0.88;;
67278;SDS011;54193;53.746;10.058;2022-07-06T10:13:48;3.08;;;0.90;;
67278;SDS011;54193;53.746;10.058;2022-07-06T10:16:36;2.65;;;0.70;;
67278;SDS011;54193;53.746;10.058;2022-07-06T10:19:23;2.57;;;0.70;;
67278;SDS011;54193;53.746;10.058;2022-07-06T10:22:09;3.25;;;0.70;;
67278;SDS011;54193;53.746;10.058;2022-07-06T10:24:56;3.33;;;1.00;;
67278;SDS011;54193;53.746;10.058;2022-07-06T10:27:44;3.60;;;0.82;;
67278;SDS011;54193;53.746;10.058;2022-07-06T10:30:30;4.00;;;0.80;;
67278;SDS011;54193;53.746;10.058;2022-07-06T10:33:20;3.30;;;0.90;;
67278;SDS011;54193;53.746;10.058;2022-07-06T10:36:06;2.38;;;0.80;;
67278;SDS011;54193;53.746;10.058;2022-07-06T10:38:53;2.15;;;0.70;;
67278;SDS011;54193;53.746;10.058;2022-07-06T10:41:39;4.30;;;0.70;;
67278;SDS011;54193;53.746;10.058;2022-07-06T10:44:26;2.75;;;0.80;;
67278;SDS011;54193;53.746;10.058;2022-07-06T10:47:12;3.67;;;0.90;;
67278;SDS011;54193;53.746;10.058;2022-07-06T10:50:01;3.67;;;0.90;;
67278;SDS011;54193;53.746;10.058;2022-07-06T10:52:51;5.32;;;0.80;;
67278;SDS011;54193;53.746;10.058;2022-07-06T10:55:43;4.10;;;1.00;;
67278;SDS011;54193;53.746;10.058;2022-07-06T11:01:25;2.13;;;0.80;;
67278;SDS011;54193;53.746;10.058;2022-07-06T11:04:14;3.05;;;0.65;;
67278;SDS011;54193;53.746;10.058;2022-07-06T11:07:10;4.10;;;0.83;;
67278;SDS011;54193;53.746;10.058;2022-07-06T11:09:58;2.85;;;0.82;;
67278;SDS011;54193;53.746;10.058;2022-07-06T11:12:44;3.42;;;0.73;;
67278;SDS011;54193;53.746;10.058;2022-07-06T11:15:46;2.95;;;0.70;;
67278;SDS011;54193;53.746;10.058;2022-07-06T11:18:46;3.20;;;0.60;;
67278;SDS011;54193;53.746;10.058;2022-07-06T11:24:24;3.85;;;0.90;;
67278;SDS011;54193;53.746;10.058;2022-07-06T11:27:11;4.30;;;0.73;;
67278;SDS011;54193;53.746;10.058;2022-07-06T11:29:57;2.55;;;0.75;;
67278;SDS011;54193;53.746;10.058;2022-07-06T11:32:43;4.30;;;0.83;;
67278;SDS011;54193;53.746;10.058;2022-07-06T11:35:29;3.85;;;0.95;;
67278;SDS011;54193;53.746;10.058;2022-07-06T11:38:25;2.72;;;0.90;;
67278;SDS011;54193;53.746;10.058;2022-07-06T11:41:11;2.92;;;0.80;;
67278;SDS011;54193;53.746;10.058;2022-07-06T11:43:59;2.70;;;0.80;;
67278;SDS011;54193;53.746;10.058;2022-07-06T11:46:45;4.13;;;0.93;;
67278;SDS011;54193;53.746;10.058;2022-07-06T11:49:32;2.95;;;0.80;;
67278;SDS011;54193;53.746;10.058;2022-07-06T11:52:19;2.80;;;1.10;;
67278;SDS011;54193;53.746;10.058;2022-07-06T11:55:05;3.22;;;0.80;;
67278;SDS011;54193;53.746;10.058;2022-07-06T11:57:51;4.80;;;0.88;;
67278;SDS011;54193;53.746;10.058;2022-07-06T12:00:41;3.47;;;0.83;;
67278;SDS011;54193;53.746;10.058;2022-07-06T12:03:26;4.05;;;1.10;;
67278;SDS011;54193;53.746;10.058;2022-07-06T12:06:13;3.40;;;0.90;;
67278;SDS011;54193;53.746;10.058;2022-07-06T12:09:01;3.08;;;0.90;;
67278;SDS011;54193;53.746;10.058;2022-07-06T12:11:49;2.90;;;0.90;;
67278;SDS011;54193;53.746;10.058;2022-07-06T12:14:36;4.63;;;0.80;;
67278;SDS011;54193;53.746;10.058;2022-07-06T12:17:23;4.70;;;0.95;;
67278;SDS011;54193;53.746;10.058;2022-07-06T12:20:11;4.55;;;0.80;;
67278;SDS011;54193;53.746;10.058;2022-07-06T12:23:03;4.43;;;0.80;;
67278;SDS011;54193;53.746;10.058;2022-07-06T12:25:51;4.47;;;0.73;;
67278;SDS011;54193;53.746;10.058;2022-07-06T12:28:40;3.10;;;0.60;;
67278;SDS011;54193;53.746;10.058;2022-07-06T12:31:40;3.43;;;0.70;;
67278;SDS011;54193;53.746;10.058;2022-07-06T12:34:28;3.45;;;0.60;;
67278;SDS011;54193;53.746;10.058;2022-07-06T12:37:19;2.83;;;0.70;;
67278;SDS011;54193;53.746;10.058;2022-07-06T12:40:11;3.00;;;0.80;;
67278;SDS011;54193;53.746;10.058;2022-07-06T12:42:58;2.67;;;0.65;;
67278;SDS011;54193;53.746;10.058;2022-07-06T12:45:44;3.23;;;0.50;;
67278;SDS011;54193;53.746;10.058;2022-07-06T12:48:30;2.53;;;0.50;;
67278;SDS011;54193;53.746;10.058;2022-07-06T12:51:16;1.98;;;0.50;;
67278;SDS011;54193;53.746;10.058;2022-07-06T12:54:11;2.58;;;0.60;;
67278;SDS011;54193;53.746;10.058;2022-07-06T12:57:19;3.15;;;0.50;;
67278;SDS011;54193;53.746;10.058;2022-07-06T13:00:05;1.77;;;0.53;;
67278;SDS011;54193;53.746;10.058;2022-07-06T13:02:52;2.40;;;0.77;;
67278;SDS011;54193;53.746;10.058;2022-07-06T13:05:39;2.40;;;0.60;;
67278;SDS011;54193;53.746;10.058;2022-07-06T13:08:24;3.75;;;0.70;;
67278;SDS011;54193;53.746;10.058;2022-07-06T13:11:10;2.22;;;0.60;;
67278;SDS011;54193;53.746;10.058;2022-07-06T13:13:56;3.50;;;0.90;;
67278;SDS011;54193;53.746;10.058;2022-07-06T13:16:42;2.58;;;0.70;;
67278;SDS011;54193;53.746;10.058;2022-07-06T13:19:28;3.00;;;0.80;;
67278;SDS011;54193;53.746;10.058;2022-07-06T13:22:14;2.63;;;0.85;;
67278;SDS011;54193;53.746;10.058;2022-07-06T13:25:00;2.30;;;0.70;;
67278;SDS011;54193;53.746;10.058;2022-07-06T13:27:46;2.97;;;0.80;;
67278;SDS011;54193;53.746;10.058;2022-07-06T13:30:31;3.10;;;0.80;;
67278;SDS011;54193;53.746;10.058;2022-07-06T13:33:17;2.03;;;0.70;;
67278;SDS011;54193;53.746;10.058;2022-07-06T13:36:03;5.53;;;0.77;;
67278;SDS011;54193;53.746;10.058;2022-07-06T13:38:49;5.70;;;0.60;;
67278;SDS011;54193;53.746;10.058;2022-07-06T13:41:35;2.73;;;0.50;;
67278;SDS011;54193;53.746;10.058;2022-07-06T13:44:21;3.38;;;0.60;;
67278;SDS011;54193;53.746;10.058;2022-07-06T13:47:07;2.53;;;0.70;;
67278;SDS011;54193;53.746;10.058;2022-07-06T13:49:54;2.45;;;0.60;;
67278;SDS011;54193;53.746;10.058;2022-07-06T13:52:40;4.75;;;0.82;;
67278;SDS011;54193;53.746;10.058;2022-07-06T13:55:25;3.87;;;0.70;;
67278;SDS011;54193;53.746;10.058;2022-07-06T13:58:11;2.80;;;0.65;;
67278;SDS011;54193;53.746;10.058;2022-07-06T14:00:57;3.75;;;0.82;;
67278;SDS011;54193;53.746;10.058;2022-07-06T14:03:43;2.60;;;0.60;;
67278;SDS011;54193;53.746;10.058;2022-07-06T14:06:28;2.20;;;0.65;;
67278;SDS011;54193;53.746;10.058;2022-07-06T14:09:14;4.63;;;0.70;;
67278;SDS011;54193;53.746;10.058;2022-07-06T14:12:00;3.97;;;0.80;;
67278;SDS011;54193;53.746;10.058;2022-07-06T14:14:46;2.53;;;0.65;;
67278;SDS011;54193;53.746;10.058;2022-07-06T14:17:31;3.55;;;0.70;;
67278;SDS011;54193;53.746;10.058;2022-07-06T14:20:17;3.28;;;0.70;;
67278;SDS011;54193;53.746;10.058;2022-07-06T14:23:03;2.30;;;0.67;;
67278;SDS011;54193;53.746;10.058;2022-07-06T14:25:49;3.47;;;1.30;;
67278;SDS011;54193;53.746;10.058;2022-07-06T14:28:36;2.95;;;0.70;;
67278;SDS011;54193;53.746;10.058;2022-07-06T14:31:22;3.65;;;1.02;;
67278;SDS011;54193;53.746;10.058;2022-07-06T14:34:08;2.75;;;0.70;;
67278;SDS011;54193;53.746;10.058;2022-07-06T14:36:54;3.70;;;0.60;;
67278;SDS011;54193;53.746;10.058;2022-07-06T14:39:40;3.38;;;0.88;;
67278;SDS011;54193;53.746;10.058;2022-07-06T14:42:26;3.17;;;0.70;;
67278;SDS011;54193;53.746;10.058;2022-07-06T14:45:11;3.10;;;0.90;;
67278;SDS011;54193;53.746;10.058;2022-07-06T14:47:57;2.13;;;0.65;;
67278;SDS011;54193;53.746;10.058;2022-07-06T14:50:43;3.93;;;0.70;;
67278;SDS011;54193;53.746;10.058;2022-07-06T14:53:29;2.90;;;0.82;;
67278;SDS011;54193;53.746;10.058;2022-07-06T14:56:16;2.85;;;0.70;;
67278;SDS011;54193;53.746;10.058;2022-07-06T14:59:02;3.33;;;0.70;;
67278;SDS011;54193;53.746;10.058;2022-07-06T15:01:48;3.55;;;0.80;;
67278;SDS011;54193;53.746;10.058;2022-07-06T15:04:34;1.90;;;0.70;;
67278;SDS011;54193;53.746;10.058;2022-07-06T15:07:19;3.92;;;0.80;;
67278;SDS011;54193;53.746;10.058;2022-07-06T15:10:05;2.28;;;0.80;;
67278;SDS011;54193;53.746;10.058;2022-07-06T15:12:52;2.40;;;0.77;;
67278;SDS011;54193;53.746;10.058;2022-07-06T15:15:38;3.13;;;0.88;;
67278;SDS011;54193;53.746;10.058;2022-07-06T15:18:23;2.80;;;0.73;;
67278;SDS011;54193;53.746;10.058;2022-07-06T15:21:09;3.42;;;0.77;;
67278;SDS011;54193;53.746;10.058;2022-07-06T15:23:55;3.30;;;0.70;;
67278;SDS011;54193;53.746;10.058;2022-07-06T15:26:42;6.80;;;0.90;;
67278;SDS011;54193;53.746;10.058;2022-07-06T15:29:28;4.50;;;1.10;;
67278;SDS011;54193;53.746;10.058;2022-07-06T15:32:14;3.53;;;0.80;;
67278;SDS011;54193;53.746;10.058;2022-07-06T15:35:00;3.90;;;0.88;;
67278;SDS011;54193;53.746;10.058;2022-07-06T15:37:45;6.03;;;1.48;;
67278;SDS011;54193;53.746;10.058;2022-07-06T15:40:31;3.63;;;1.10;;
67278;SDS011;54193;53.746;10.058;2022-07-06T15:43:23;2.80;;;1.15;;
67278;SDS011;54193;53.746;10.058;2022-07-06T15:46:09;5.73;;;1.70;;
67278;SDS011;54193;53.746;10.058;2022-07-06T15:48:56;5.32;;;2.15;;
67278;SDS011;54193;53.746;10.058;2022-07-06T15:51:42;3.47;;;1.10;;
67278;SDS011;54193;53.746;10.058;2022-07-06T15:54:28;6.70;;;2.47;;
67278;SDS011;54193;53.746;10.058;2022-07-06T15:57:15;5.00;;;1.55;;
67278;SDS011;54193;53.746;10.058;2022-07-06T16:00:00;4.77;;;1.70;;
67278;SDS011;54193;53.746;10.058;2022-07-06T16:02:46;4.10;;;1.10;;
67278;SDS011;54193;53.746;10.058;2022-07-06T16:05:32;3.30;;;1.20;;
67278;SDS011;54193;53.746;10.058;2022-07-06T16:08:18;3.85;;;1.15;;
67278;SDS011;54193;53.746;10.058;2022-07-06T16:11:04;5.15;;;1.10;;
67278;SDS011;54193;53.746;10.058;2022-07-06T16:13:50;3.63;;;1.20;;
67278;SDS011;54193;53.746;10.058;2022-07-06T16:16:36;3.92;;;1.20;;
67278;SDS011;54193;53.746;10.058;2022-07-06T16:19:25;3.65;;;1.17;;
67278;SDS011;54193;53.746;10.058;2022-07-06T16:22:12;4.97;;;1.50;;
67278;SDS011;54193;53.746;10.058;2022-07-06T16:24:57;4.13;;;1.15;;
67278;SDS011;54193;53.746;10.058;2022-07-06T16:27:43;3.60;;;1.27;;
67278;SDS011;54193;53.746;10.058;2022-07-06T16:30:30;4.55;;;2.00;;
67278;SDS011;54193;53.746;10.058;2022-07-06T16:33:17;4.78;;;1.52;;